createdAt,value
2023-04-15T04:52:30.717Z,8.20
2023-04-15T04:54:57.449Z,4.75
2023-04-15T04:57:24.321Z,14.70
2023-04-15T04:59:52.916Z,9.07
2023-04-15T05:02:20.201Z,10.18
2023-04-15T05:04:47.043Z,8.68
2023-04-15T05:07:13.812Z,7.38
2023-04-15T05:09:41.321Z,9.90
2023-04-15T05:12:09.362Z,9.02
2023-04-15T05:14:36.369Z,9.50
2023-04-15T05:17:03.795Z,8.32
2023-04-15T05:19:30.954Z,9.35
2023-04-15T05:22:00.849Z,8.20
2023-04-15T05:24:29.408Z,5.95
2023-04-15T05:29:43.382Z,10.38
2023-04-15T05:32:12.067Z,9.95
2023-04-15T05:34:38.952Z,6.00
2023-04-15T05:37:06.056Z,7.75
2023-04-15T05:39:32.972Z,5.65
2023-04-15T05:42:00.839Z,9.02
2023-04-15T05:44:28.077Z,6.78
2023-04-15T05:46:54.969Z,6.72
2023-04-15T05:49:21.805Z,9.18
2023-04-15T05:51:48.864Z,9.15
2023-04-15T05:54:17.716Z,8.20
2023-04-15T05:56:46.244Z,8.52
2023-04-15T05:59:13.245Z,10.82
2023-04-15T06:01:40.653Z,14.27
2023-04-15T06:04:07.590Z,10.70
2023-04-15T06:06:37.083Z,7.53
2023-04-15T06:09:04.784Z,8.55
2023-04-15T06:11:31.669Z,10.30
2023-04-15T06:13:58.501Z,7.55
2023-04-15T06:16:25.322Z,6.95
2023-04-15T06:18:52.389Z,9.20
2023-04-15T06:21:19.634Z,7.57
2023-04-15T06:23:46.570Z,9.95
2023-04-15T06:26:13.524Z,10.68
2023-04-15T06:28:40.415Z,12.95
2023-04-15T06:31:07.299Z,12.73
2023-04-15T06:33:35.357Z,10.88
2023-04-15T06:36:02.507Z,10.93
2023-04-15T06:38:29.375Z,10.52
2023-04-15T06:40:56.556Z,12.85
2023-04-15T06:43:23.729Z,13.93
2023-04-15T06:45:51.019Z,11.30
2023-04-15T06:48:18.719Z,11.82
2023-04-15T06:50:45.558Z,9.05
2023-04-15T06:53:12.721Z,14.32
2023-04-15T06:55:41.578Z,10.82
2023-04-15T06:58:09.835Z,12.93
2023-04-15T07:00:39.092Z,11.45
2023-04-15T07:03:06.305Z,10.77
2023-04-15T07:05:36.007Z,11.32
2023-04-15T07:08:04.829Z,10.15
2023-04-15T07:10:32.037Z,13.82
2023-04-15T07:13:00.261Z,12.65
2023-04-15T07:15:29.715Z,11.05
2023-04-15T07:17:57.624Z,13.07
2023-04-15T07:20:25.239Z,13.50
2023-04-15T07:22:52.839Z,14.27
2023-04-15T07:25:19.823Z,10.60
2023-04-15T07:27:48.213Z,12.35
2023-04-15T07:30:21.234Z,10.45
2023-04-15T07:35:21.193Z,11.32
2023-04-15T07:37:48.615Z,15.25
2023-04-15T07:40:17.843Z,11.15
2023-04-15T07:42:45.603Z,12.20
2023-04-15T07:45:13.626Z,13.80
2023-04-15T07:47:43.913Z,14.70
2023-04-15T07:50:29.590Z,15.57
2023-04-15T07:55:40.107Z,10.48
2023-04-15T07:58:07.610Z,11.48
2023-04-15T08:00:37.498Z,16.60
2023-04-15T08:03:07.906Z,13.80
2023-04-15T08:05:41.940Z,9.63
2023-04-15T08:08:09.218Z,15.50
2023-04-15T08:10:38.472Z,11.75
2023-04-15T08:13:06.096Z,20.20
2023-04-15T08:15:33.810Z,12.13
2023-04-15T08:18:01.508Z,12.43
2023-04-15T08:20:30.077Z,14.38
2023-04-15T08:22:59.453Z,12.55
2023-04-15T08:25:35.214Z,10.35
2023-04-15T08:28:07.203Z,13.20
2023-04-15T08:33:20.029Z,11.80
2023-04-15T08:35:48.054Z,13.27
2023-04-15T08:38:18.653Z,18.33
2023-04-15T08:40:47.240Z,13.55
2023-04-15T08:43:23.448Z,16.90
2023-04-15T08:45:52.237Z,12.93
2023-04-15T08:48:19.540Z,20.92
2023-04-15T08:50:48.015Z,11.27
2023-04-15T08:53:15.890Z,13.07
2023-04-15T08:55:51.493Z,15.07
2023-04-15T08:58:26.365Z,15.55
2023-04-15T09:00:54.036Z,13.07
2023-04-15T09:06:06.698Z,11.20
2023-04-15T09:08:39.104Z,13.00
2023-04-15T09:14:00.828Z,12.68
2023-04-15T09:19:24.392Z,14.02
2023-04-15T09:22:01.864Z,14.60
2023-04-15T09:24:39.937Z,11.43
2023-04-15T09:27:12.797Z,5.53
2023-04-15T09:29:43.475Z,10.43
2023-04-15T09:32:15.560Z,6.50
2023-04-15T09:34:43.893Z,13.37
2023-04-15T09:37:31.591Z,5.43
2023-04-15T09:39:58.998Z,3.28
2023-04-15T09:42:28.719Z,6.80
2023-04-15T09:44:56.774Z,4.38
2023-04-15T09:47:30.563Z,5.63
2023-04-15T09:49:58.570Z,3.90
2023-04-15T09:52:26.018Z,3.40
2023-04-15T09:54:57.754Z,2.65
2023-04-15T09:57:25.015Z,2.95
2023-04-15T09:59:52.549Z,3.05
2023-04-15T10:02:21.519Z,3.08
2023-04-15T10:04:49.645Z,3.50
2023-04-15T10:07:21.734Z,5.63
2023-04-15T10:09:52.504Z,4.10
2023-04-15T10:12:20.818Z,2.47
2023-04-15T10:15:00.114Z,2.88
2023-04-15T10:17:31.740Z,2.67
2023-04-15T10:20:03.830Z,2.00
2023-04-15T10:22:32.149Z,2.08
2023-04-15T10:25:00.393Z,3.33
2023-04-15T10:30:19.750Z,3.60
2023-04-15T10:35:35.429Z,1.70
2023-04-15T10:38:05.223Z,2.90
2023-04-15T10:40:38.022Z,2.33
2023-04-15T10:43:06.528Z,8.57
2023-04-15T10:45:38.233Z,5.80
2023-04-15T10:48:10.093Z,4.00
2023-04-15T10:50:38.224Z,3.97
2023-04-15T10:53:06.196Z,2.20
2023-04-15T10:55:34.896Z,3.72
2023-04-15T10:58:04.031Z,3.70
2023-04-15T11:00:33.356Z,2.75
2023-04-15T11:03:08.943Z,3.83
2023-04-15T11:05:57.359Z,2.10
2023-04-15T11:08:55.471Z,4.57
2023-04-15T11:11:23.611Z,3.35
2023-04-15T11:13:52.446Z,4.88
2023-04-15T11:16:19.687Z,5.63
2023-04-15T11:19:05.795Z,5.55
2023-04-15T11:21:34.443Z,5.15
2023-04-15T11:24:02.267Z,4.70
2023-04-15T11:26:30.336Z,6.38
2023-04-15T11:28:57.402Z,8.20
2023-04-15T11:31:28.971Z,4.32
2023-04-15T11:33:56.487Z,6.57
2023-04-15T11:36:38.573Z,5.72
2023-04-15T11:39:07.954Z,3.53
2023-04-15T11:41:36.836Z,5.00
2023-04-15T11:44:03.925Z,13.63
2023-04-15T11:46:32.440Z,2.72
2023-04-15T11:49:00.278Z,8.10
2023-04-15T11:51:32.096Z,2.97
2023-04-15T11:53:59.181Z,5.75
2023-04-15T11:56:35.601Z,4.03
2023-04-15T11:59:03.429Z,4.45
2023-04-15T12:01:44.692Z,3.50
2023-04-15T12:04:22.582Z,7.95
2023-04-15T12:07:01.493Z,4.13
2023-04-15T12:09:30.903Z,4.78
2023-04-15T12:11:59.292Z,5.45
2023-04-15T12:14:40.328Z,4.40
2023-04-15T12:17:07.485Z,4.80
2023-04-15T12:19:39.771Z,8.15
2023-04-15T12:22:10.477Z,4.50
2023-04-15T12:24:38.713Z,4.60
2023-04-15T12:27:12.344Z,5.25
2023-04-15T12:29:40.574Z,4.13
2023-04-15T12:32:52.980Z,2.60
2023-04-15T12:35:21.594Z,1.98
2023-04-15T12:37:48.595Z,3.88
2023-04-15T12:40:15.968Z,2.63
2023-04-15T12:42:43.185Z,2.88
2023-04-15T12:45:10.304Z,3.33
2023-04-15T12:47:37.465Z,3.80
2023-04-15T12:50:04.771Z,4.13
2023-04-15T12:52:31.579Z,4.72
2023-04-15T12:54:58.767Z,5.07
2023-04-15T12:57:25.603Z,6.78
2023-04-15T12:59:52.774Z,9.07
2023-04-15T13:02:21.483Z,6.45
2023-04-15T13:04:48.776Z,5.07
2023-04-15T13:07:16.832Z,6.00
2023-04-15T13:09:44.186Z,5.60
2023-04-15T13:12:14.095Z,5.00
2023-04-15T13:14:49.690Z,5.35
2023-04-15T13:17:19.224Z,6.00
2023-04-15T13:19:46.761Z,6.00
2023-04-15T13:22:15.113Z,9.15
2023-04-15T13:24:42.012Z,6.10
2023-04-15T13:27:09.283Z,6.10
2023-04-15T13:29:36.413Z,9.65
2023-04-15T13:32:03.422Z,7.22
2023-04-15T13:34:30.819Z,6.88
2023-04-15T13:36:58.080Z,5.18
2023-04-15T13:39:25.148Z,7.50
2023-04-15T13:41:52.133Z,6.57
2023-04-15T13:44:20.890Z,6.70
2023-04-15T13:46:48.763Z,4.80
2023-04-15T13:49:16.617Z,4.40
2023-04-15T13:51:43.553Z,4.70
2023-04-15T13:54:10.792Z,5.70
2023-04-15T13:56:38.549Z,6.43
2023-04-15T13:59:07.002Z,8.40
2023-04-15T14:01:35.184Z,7.72
2023-04-15T14:04:02.627Z,8.13
2023-04-15T14:06:31.750Z,9.73
2023-04-15T14:08:58.936Z,12.70
2023-04-15T14:11:26.482Z,7.80
2023-04-15T14:13:53.670Z,9.05
2023-04-15T14:16:21.449Z,11.68
2023-04-15T14:18:48.764Z,11.40
2023-04-15T14:21:17.005Z,11.30
2023-04-15T14:23:44.371Z,10.30
2023-04-15T14:26:11.839Z,16.98
2023-04-15T14:28:39.257Z,18.63
2023-04-15T14:31:07.502Z,11.52
2023-04-15T14:33:34.390Z,8.55
2023-04-15T14:36:01.549Z,9.55
2023-04-15T14:38:28.597Z,9.38
2023-04-15T14:40:55.695Z,8.40
2023-04-15T14:43:23.843Z,8.95
2023-04-15T14:45:52.076Z,11.65
2023-04-15T14:48:19.089Z,8.00
2023-04-15T14:50:48.163Z,9.27
2023-04-15T14:53:17.448Z,7.63
2023-04-15T14:55:45.919Z,10.82
2023-04-15T14:58:12.971Z,7.63
2023-04-15T15:00:42.940Z,7.82
2023-04-15T15:03:16.254Z,6.50
2023-04-15T15:05:52.735Z,7.55
2023-04-15T15:08:20.653Z,7.00
2023-04-15T15:10:48.629Z,6.50
2023-04-15T15:13:17.632Z,10.13
2023-04-15T15:15:47.078Z,7.47
2023-04-15T15:18:14.170Z,7.70
2023-04-15T15:20:41.192Z,10.18
2023-04-15T15:23:11.500Z,12.60
2023-04-15T15:25:38.762Z,15.98
2023-04-15T15:28:06.736Z,16.20
2023-04-15T15:30:34.050Z,17.58
2023-04-15T15:33:01.045Z,18.52
2023-04-15T15:35:28.094Z,18.90
2023-04-15T15:37:55.962Z,18.95
2023-04-15T15:40:22.900Z,22.17
2023-04-15T15:42:51.031Z,20.20
2023-04-15T15:45:18.327Z,20.73
2023-04-15T15:47:45.247Z,19.90
2023-04-15T15:50:14.030Z,18.15
2023-04-15T15:52:41.331Z,18.92
2023-04-15T15:55:08.750Z,17.33
2023-04-15T15:57:35.613Z,21.80
2023-04-15T16:02:59.838Z,24.30
2023-04-15T16:05:20.441Z,21.42
2023-04-15T16:07:47.232Z,24.88
2023-04-15T16:10:14.299Z,22.90
2023-04-15T16:12:44.893Z,22.38
2023-04-15T16:15:12.991Z,23.95
2023-04-15T16:17:39.973Z,24.90
2023-04-15T16:20:07.675Z,26.35
2023-04-15T16:22:35.160Z,26.10
2023-04-15T16:25:02.845Z,23.17
2023-04-15T16:27:30.549Z,18.83
2023-04-15T16:29:57.547Z,18.33
2023-04-15T16:32:24.660Z,18.17
2023-04-15T16:34:52.975Z,20.80
2023-04-15T16:37:21.167Z,21.23
2023-04-15T16:39:48.252Z,16.70
2023-04-15T16:42:15.477Z,18.08
2023-04-15T16:44:42.635Z,21.90
2023-04-15T16:47:12.326Z,16.90
2023-04-15T16:49:39.294Z,17.58
2023-04-15T16:52:07.039Z,15.63
2023-04-15T16:54:35.349Z,16.60
2023-04-15T16:57:03.091Z,15.32
2023-04-15T16:59:30.738Z,16.38
2023-04-15T17:01:57.846Z,14.07
2023-04-15T17:04:25.089Z,19.45
2023-04-15T17:06:53.341Z,17.38
2023-04-15T17:09:20.600Z,18.70
2023-04-15T17:11:48.270Z,17.60
2023-04-15T17:14:15.248Z,18.02
2023-04-15T17:16:43.191Z,18.48
2023-04-15T17:19:11.193Z,15.73
2023-04-15T17:21:38.642Z,15.45
2023-04-15T17:24:06.474Z,17.85
2023-04-15T17:26:33.590Z,16.05
2023-04-15T17:29:01.245Z,19.02
2023-04-15T17:31:29.845Z,18.27
2023-04-15T17:34:02.568Z,15.15
2023-04-15T17:36:35.027Z,14.98
2023-04-15T17:39:02.215Z,20.50
2023-04-15T17:41:29.200Z,20.02
2023-04-15T17:43:56.372Z,19.48
2023-04-15T17:46:23.580Z,20.23
2023-04-15T17:48:52.968Z,19.70
2023-04-15T17:51:20.676Z,16.98
2023-04-15T17:53:47.813Z,16.40
2023-04-15T17:56:14.727Z,15.23
2023-04-15T17:58:41.689Z,15.32
2023-04-15T18:01:08.955Z,11.43
2023-04-15T18:03:37.162Z,11.73
2023-04-15T18:06:04.895Z,12.85
2023-04-15T18:08:32.107Z,14.13
2023-04-15T18:11:02.137Z,11.27
2023-04-15T18:13:34.024Z,9.65
2023-04-15T18:16:01.682Z,9.48
2023-04-15T18:18:29.396Z,9.27
2023-04-15T18:20:56.659Z,11.10
2023-04-15T18:23:25.693Z,10.50
2023-04-15T18:25:56.118Z,11.38
2023-04-15T18:28:23.288Z,10.50
2023-04-15T18:30:50.393Z,11.45
2023-04-15T18:33:18.069Z,11.50
2023-04-15T18:35:45.279Z,11.38
2023-04-15T18:38:12.443Z,10.95
2023-04-15T18:40:39.615Z,11.63
2023-04-15T18:43:06.954Z,12.90
2023-04-15T18:45:33.984Z,10.57
2023-04-15T18:48:08.873Z,11.02
2023-04-15T18:50:36.163Z,12.75
2023-04-15T18:53:03.044Z,10.48
2023-04-15T18:55:30.314Z,8.30
2023-04-15T18:57:57.151Z,13.63
2023-04-15T19:00:41.704Z,9.40
2023-04-15T19:03:15.898Z,8.88
2023-04-15T19:06:08.445Z,12.88
2023-04-15T19:08:49.954Z,13.23
2023-04-15T19:11:20.170Z,16.90
2023-04-15T19:13:57.629Z,12.50
2023-04-15T19:16:26.162Z,12.50
2023-04-15T19:19:06.576Z,12.82
2023-04-15T19:21:50.444Z,15.02
2023-04-15T19:24:26.522Z,18.08
2023-04-15T19:27:19.614Z,19.52
2023-04-15T19:30:09.111Z,23.50
2023-04-15T19:35:34.610Z,23.63
2023-04-15T19:38:09.745Z,24.15
2023-04-15T19:40:41.502Z,24.20
2023-04-15T19:46:10.045Z,24.73
2023-04-15T19:48:41.019Z,20.98
2023-04-15T19:51:13.137Z,17.15
2023-04-15T19:53:49.041Z,16.52
2023-04-15T19:56:19.221Z,23.25
2023-04-15T19:58:53.018Z,30.30
2023-04-15T20:01:57.331Z,20.45
2023-04-15T20:04:38.292Z,22.48
2023-04-15T20:07:11.277Z,18.17
2023-04-15T20:09:52.296Z,16.88
2023-04-15T20:12:50.925Z,18.95
2023-04-15T20:15:34.250Z,18.50
2023-04-15T20:18:12.849Z,16.80
2023-04-15T20:20:50.792Z,22.48
2023-04-15T20:23:22.460Z,14.20
2023-04-15T20:25:55.356Z,15.80
2023-04-15T20:31:01.388Z,16.58
2023-04-15T20:33:44.919Z,21.00
2023-04-15T20:36:22.557Z,22.10
2023-04-15T20:38:56.036Z,15.23
2023-04-15T20:41:42.185Z,24.75
2023-04-15T20:44:09.307Z,17.73
2023-04-15T20:46:36.651Z,20.08
2023-04-15T20:49:07.111Z,16.88
2023-04-15T20:51:38.424Z,18.85
2023-04-15T20:54:06.458Z,20.88
2023-04-15T20:56:34.049Z,30.25
2023-04-15T20:59:01.724Z,23.00
2023-04-15T21:01:29.014Z,20.13
2023-04-15T21:03:56.264Z,20.40
2023-04-15T21:06:23.198Z,22.33
2023-04-15T21:08:52.611Z,18.25
2023-04-15T21:11:38.741Z,20.30
2023-04-15T21:14:08.251Z,22.33
2023-04-15T21:16:35.331Z,21.85
2023-04-15T21:19:02.593Z,21.63
2023-04-15T21:21:29.532Z,19.75
2023-04-15T21:23:56.743Z,24.30
2023-04-15T21:26:23.556Z,27.65
2023-04-15T21:28:50.405Z,24.73
2023-04-15T21:31:17.601Z,24.65
2023-04-15T21:33:44.507Z,23.08
2023-04-15T21:36:11.776Z,20.85
2023-04-15T21:38:38.902Z,31.05
2023-04-15T21:41:10.668Z,29.13
2023-04-15T21:43:37.922Z,27.38
2023-04-15T21:46:22.223Z,28.80
2023-04-15T21:48:53.067Z,25.83
2023-04-15T21:51:20.190Z,24.92
2023-04-15T21:53:47.388Z,23.83
2023-04-15T21:56:14.712Z,25.23
2023-04-15T21:58:41.686Z,26.95
2023-04-15T22:01:09.037Z,26.92
2023-04-15T22:03:36.119Z,25.45
2023-04-15T22:06:04.285Z,25.95
2023-04-15T22:08:38.570Z,19.63
2023-04-15T22:11:09.447Z,23.42
2023-04-15T22:13:36.965Z,22.30
2023-04-15T22:16:03.934Z,20.73
2023-04-15T22:18:31.026Z,19.83
2023-04-15T22:20:58.307Z,17.48
2023-04-15T22:23:25.636Z,20.17
2023-04-15T22:25:52.782Z,19.98
2023-04-15T22:28:19.947Z,15.65
2023-04-15T22:30:47.105Z,21.13
2023-04-15T22:33:14.002Z,20.88
2023-04-15T22:35:41.272Z,22.48
2023-04-15T22:38:08.443Z,20.58
2023-04-15T22:40:35.484Z,19.85
2023-04-15T22:43:03.593Z,18.42
2023-04-15T22:45:30.473Z,23.15
2023-04-15T22:47:58.741Z,22.90
2023-04-15T22:50:26.163Z,21.13
2023-04-15T22:52:57.286Z,20.67
2023-04-15T22:55:27.237Z,22.30
2023-04-15T22:57:57.588Z,20.25
2023-04-15T23:00:25.149Z,21.67
2023-04-15T23:03:01.252Z,24.95
2023-04-15T23:05:32.783Z,24.35
2023-04-15T23:08:03.920Z,21.95
2023-04-15T23:10:31.369Z,22.67
2023-04-15T23:12:58.664Z,19.58
2023-04-15T23:15:25.863Z,24.67
2023-04-15T23:18:02.353Z,30.73
2023-04-15T23:20:29.757Z,33.85
2023-04-15T23:22:59.683Z,27.50
2023-04-15T23:25:32.038Z,32.42
2023-04-15T23:28:01.854Z,38.90
2023-04-15T23:30:30.287Z,40.42
2023-04-15T23:32:58.738Z,39.03
2023-04-15T23:35:31.281Z,48.20
2023-04-15T23:37:58.811Z,46.33
2023-04-15T23:40:32.889Z,50.03
2023-04-15T23:43:00.049Z,45.92
2023-04-15T23:45:27.118Z,44.17
2023-04-15T23:48:01.435Z,43.67
2023-04-15T23:50:28.539Z,45.92
2023-04-15T23:52:55.650Z,47.88
2023-04-15T23:55:22.555Z,48.10
2023-04-15T23:57:50.864Z,52.50
